Terminal Aerodrome Forecast
Issued by NWS

Home | Current Version | Previous Version | Text Only | Print | Product List | Glossary On
Versions: 1 2 3 4 5 6 7 8 9 10 11 12 13
718
FTUS44 KCRP 201130
TAFLRD
TAF
KLRD 201130Z 2012/2112 15010KT P6SM SCT025
     FM201600 16012KT P6SM SCT035
     FM202300 13012KT P6SM SCT070
     FM210900 14008KT P6SM SCT025=

USA.gov is the U.S. government's official web portal to all federal, state and local government web resources and services.